Time;durP1;ratioP1;P1;durP2;ratioP2;P2;SDS_P1;SDS_P2;PMS_P1;PMS_P2;Temp;Humidity;BMP_temperature;BMP_pressure;BME280_temperature;BME280_humidity;BME280_pressure;Samples;Min_cycle;Max_cycle;Signal;HPM_P1;HPM_P2
2021/11/29 00:01:57;;;;;;;26.08;12.40;;;5.40;90.20;;;;;;5007729;28;20033;-74
2021/11/29 00:04:23;;;;;;;21.92;11.63;;;5.40;90.00;;;;;;5007275;28;20045;-74
2021/11/29 00:06:49;;;;;;;23.27;11.63;;;5.50;90.00;;;;;;5012931;28;20057;-75
2021/11/29 00:09:15;;;;;;;21.48;11.32;;;5.50;89.80;;;;;;5014167;28;20018;-75
2021/11/29 00:11:42;;;;;;;25.60;12.07;;;5.50;89.60;;;;;;5004733;28;20441;-75
2021/11/29 00:14:08;;;;;;;25.90;12.52;;;5.50;90.00;;;;;;5009793;28;20030;-76
2021/11/29 00:16:35;;;;;;;24.38;11.38;;;5.50;89.40;;;;;;5009189;28;20037;-74
2021/11/29 00:19:04;;;;;;;22.13;11.15;;;5.50;89.60;;;;;;5004679;28;20032;-74
2021/11/29 00:21:34;;;;;;;22.65;12.80;;;5.50;89.40;;;;;;5009698;28;20041;-73
2021/11/29 00:24:01;;;;;;;24.30;11.73;;;5.50;89.40;;;;;;5010752;28;20026;-69
2021/11/29 00:26:27;;;;;;;22.15;11.40;;;5.50;89.60;;;;;;5010049;28;20030;-70
2021/11/29 00:28:53;;;;;;;24.67;11.90;;;5.50;89.90;;;;;;5009704;28;20029;-70
2021/11/29 00:31:19;;;;;;;18.95;10.68;;;5.50;89.90;;;;;;5013956;28;20071;-70
2021/11/29 00:33:45;;;;;;;23.13;12.70;;;5.50;89.80;;;;;;5007045;28;20041;-71
2021/11/29 00:36:11;;;;;;;23.45;12.13;;;5.60;89.60;;;;;;5007678;28;20025;-70
2021/11/29 00:38:38;;;;;;;20.92;10.70;;;5.60;89.20;;;;;;5011360;28;20034;-72
2021/11/29 00:41:04;;;;;;;25.25;12.18;;;5.60;89.10;;;;;;5027699;28;20036;-73
2021/11/29 00:43:29;;;;;;;32.40;14.38;;;5.60;89.60;;;;;;5005168;28;20073;-74
2021/11/29 00:45:55;;;;;;;26.02;13.25;;;5.60;89.70;;;;;;5013002;28;20128;-70
2021/11/29 00:48:21;;;;;;;27.08;13.38;;;5.50;89.50;;;;;;5008955;28;20026;-76
2021/11/29 00:50:47;;;;;;;31.15;14.95;;;5.50;89.80;;;;;;5011520;28;20053;-80
2021/11/29 00:53:13;;;;;;;29.05;14.50;;;5.50;89.70;;;;;;5010299;28;20042;-77
2021/11/29 00:55:41;;;;;;;26.75;13.55;;;5.50;89.00;;;;;;5011778;28;20033;-76
2021/11/29 00:58:07;;;;;;;27.50;12.82;;;5.50;89.20;;;;;;5014939;28;20412;-79
2021/11/29 01:00:35;;;;;;;29.92;14.18;;;5.40;89.30;;;;;;5018116;28;20047;-78
2021/11/29 01:03:01;;;;;;;29.38;14.75;;;5.40;89.50;;;;;;5016665;28;20109;-79
2021/11/29 01:05:27;;;;;;;30.30;13.85;;;5.40;89.90;;;;;;5014449;28;20030;-77
2021/11/29 01:07:53;;;;;;;24.73;12.88;;;5.40;88.80;;;;;;5034269;28;20575;-82
2021/11/29 01:10:21;;;;;;;27.75;13.15;;;5.30;88.80;;;;;;5009990;28;20026;-76
2021/11/29 01:12:48;;;;;;;32.50;14.52;;;5.30;89.00;;;;;;5008787;28;20108;-74
2021/11/29 01:15:17;;;;;;;32.67;14.40;;;5.30;88.90;;;;;;5012492;28;20339;-75
2021/11/29 01:17:44;;;;;;;32.22;14.65;;;5.30;89.40;;;;;;5013354;28;20080;-77
2021/11/29 01:20:10;;;;;;;31.40;14.43;;;5.20;89.50;;;;;;5012660;28;20034;-77
2021/11/29 01:22:38;;;;;;;29.73;14.18;;;5.20;89.00;;;;;;5017560;28;20500;-78
2021/11/29 01:25:04;;;;;;;33.22;15.13;;;5.10;88.80;;;;;;5017948;28;20064;-74
2021/11/29 01:27:30;;;;;;;32.08;14.23;;;5.10;89.40;;;;;;5008167;28;20029;-81
2021/11/29 01:29:56;;;;;;;27.73;14.23;;;5.10;89.00;;;;;;5012833;28;20041;-79
2021/11/29 01:32:22;;;;;;;29.27;13.20;;;5.10;89.60;;;;;;5022142;28;20121;-77
2021/11/29 01:34:48;;;;;;;31.70;13.63;;;5.10;89.50;;;;;;5020008;28;20037;-80
2021/11/29 01:37:14;;;;;;;32.92;14.75;;;5.10;89.40;;;;;;5017066;28;20059;-76
2021/11/29 01:39:40;;;;;;;30.33;14.25;;;5.10;89.10;;;;;;5023797;28;20922;-79
2021/11/29 01:42:08;;;;;;;33.38;14.05;;;5.10;89.50;;;;;;5016407;28;20025;-73
2021/11/29 01:44:34;;;;;;;29.52;13.40;;;5.10;89.80;;;;;;5012980;28;20129;-77
2021/11/29 01:47:00;;;;;;;31.65;15.07;;;5.10;90.00;;;;;;5012903;28;20029;-77
2021/11/29 01:49:26;;;;;;;34.42;16.65;;;5.20;90.00;;;;;;5010902;28;20062;-77
2021/11/29 01:51:52;;;;;;;34.20;15.88;;;5.20;89.50;;;;;;5007601;28;20113;-77
2021/11/29 01:54:18;;;;;;;34.80;16.52;;;5.30;88.90;;;;;;5013465;28;20037;-73
2021/11/29 01:56:46;;;;;;;33.70;15.30;;;5.20;89.00;;;;;;5011549;28;20375;-76
2021/11/29 01:59:12;;;;;;;29.70;12.90;;;5.20;89.00;;;;;;5007235;28;20033;-76
2021/11/29 02:01:38;;;;;;;32.15;15.98;;;5.20;89.20;;;;;;5015565;28;20119;-76
2021/11/29 02:04:07;;;;;;;31.25;13.68;;;5.20;89.10;;;;;;5016566;28;20037;-77
2021/11/29 02:06:34;;;;;;;28.80;12.55;;;5.20;89.20;;;;;;5014475;28;20033;-76
2021/11/29 02:09:00;;;;;;;30.77;13.45;;;5.10;89.30;;;;;;5013802;28;20167;-77
2021/11/29 02:11:27;;;;;;;30.45;14.52;;;5.20;89.60;;;;;;5012765;28;20105;-76
2021/11/29 02:13:59;;;;;;;29.15;14.13;;;5.20;89.60;;;;;;5010072;28;20056;-74
2021/11/29 02:16:26;;;;;;;27.20;13.38;;;5.20;89.40;;;;;;5018631;28;20033;-76
2021/11/29 02:18:51;;;;;;;32.88;15.82;;;5.20;89.80;;;;;;5019041;28;20029;-77
2021/11/29 02:21:20;;;;;;;32.67;14.35;;;5.20;90.00;;;;;;5009017;28;20030;-76
2021/11/29 02:23:49;;;;;;;31.15;14.95;;;5.10;90.00;;;;;;5011897;28;20029;-77
2021/11/29 02:26:17;;;;;;;32.50;14.13;;;5.20;90.00;;;;;;5013964;28;20518;-77
2021/11/29 02:28:45;;;;;;;32.90;14.45;;;5.20;90.00;;;;;;5015396;28;20072;-76
2021/11/29 02:31:15;;;;;;;28.95;13.63;;;5.30;89.40;;;;;;5009888;28;20088;-76
2021/11/29 02:33:41;;;;;;;32.67;15.13;;;5.30;89.40;;;;;;5014006;28;20037;-76
2021/11/29 02:36:07;;;;;;;30.83;15.15;;;5.20;89.40;;;;;;5014267;28;20036;-76
2021/11/29 02:38:33;;;;;;;27.00;12.85;;;5.20;89.30;;;;;;5007871;28;20033;-76
2021/11/29 02:40:59;;;;;;;34.30;16.45;;;5.20;89.30;;;;;;5016103;28;20037;-76
2021/11/29 02:43:25;;;;;;;28.45;13.38;;;5.20;89.30;;;;;;5021730;28;20032;-77
2021/11/29 02:45:51;;;;;;;32.28;14.30;;;5.20;89.30;;;;;;5010635;28;20030;-77
2021/11/29 02:48:17;;;;;;;33.00;15.55;;;5.30;89.30;;;;;;5012751;28;20071;-77
2021/11/29 02:50:43;;;;;;;31.95;15.63;;;5.20;89.10;;;;;;5018511;28;20642;-77
2021/11/29 02:53:12;;;;;;;29.80;14.98;;;5.20;90.00;;;;;;5006845;28;20026;-77
2021/11/29 02:55:38;;;;;;;33.97;16.17;;;5.20;89.40;;;;;;5011827;28;20044;-76
2021/11/29 02:58:06;;;;;;;31.50;15.30;;;5.20;89.40;;;;;;5010030;28;20044;-77
2021/11/29 03:00:33;;;;;;;30.75;14.23;;;5.10;89.80;;;;;;5010146;28;20037;-77
2021/11/29 03:03:10;;;;;;;33.97;15.70;;;5.10;89.80;;;;;;5011430;28;20041;-77
2021/11/29 03:05:36;;;;;;;28.55;14.02;;;5.10;90.00;;;;;;5013601;28;20045;-77
2021/11/29 03:08:04;;;;;;;33.50;15.68;;;5.20;89.90;;;;;;5005750;28;20125;-77
2021/11/29 03:10:32;;;;;;;31.17;14.30;;;5.20;89.80;;;;;;5013821;28;20033;-76
2021/11/29 03:12:58;;;;;;;32.70;15.40;;;5.20;90.00;;;;;;5014326;28;20568;-76
2021/11/29 03:15:24;;;;;;;30.73;15.15;;;5.20;90.10;;;;;;5015040;28;20037;-77
2021/11/29 03:17:50;;;;;;;28.40;13.65;;;5.20;90.00;;;;;;5011849;28;20041;-77
2021/11/29 03:20:17;;;;;;;25.23;12.77;;;5.20;90.00;;;;;;5011642;28;20030;-77
2021/11/29 03:22:44;;;;;;;32.92;13.85;;;5.30;90.00;;;;;;5008481;28;20033;-77
2021/11/29 03:25:11;;;;;;;34.47;15.60;;;5.30;90.00;;;;;;5014290;28;20080;-77
2021/11/29 03:27:40;;;;;;;29.88;15.32;;;5.30;89.70;;;;;;5015449;28;20477;-77
2021/11/29 03:30:09;;;;;;;33.58;15.50;;;5.30;89.90;;;;;;5006370;28;20063;-76
2021/11/29 03:32:37;;;;;;;30.65;15.10;;;5.30;90.00;;;;;;5019245;28;20116;-76
2021/11/29 03:35:06;;;;;;;35.08;15.05;;;5.30;90.00;;;;;;5012435;28;20064;-77
2021/11/29 03:37:32;;;;;;;32.22;16.08;;;5.30;89.80;;;;;;5011700;28;20041;-77
2021/11/29 03:39:58;;;;;;;33.83;16.33;;;5.30;90.00;;;;;;5009829;28;20029;-76
2021/11/29 03:42:24;;;;;;;34.47;16.63;;;5.40;90.00;;;;;;5012761;28;20033;-77
2021/11/29 03:44:49;;;;;;;32.90;15.40;;;5.40;90.00;;;;;;5007568;28;20088;-77
2021/11/29 03:47:15;;;;;;;36.42;16.23;;;5.40;90.00;;;;;;5018954;28;20045;-77
2021/11/29 03:49:41;;;;;;;37.22;16.08;;;5.40;90.10;;;;;;5012441;28;20080;-77
2021/11/29 03:52:07;;;;;;;30.20;13.40;;;5.30;90.10;;;;;;5011092;28;20030;-76
2021/11/29 03:54:33;;;;;;;38.60;16.88;;;5.30;90.10;;;;;;5005744;28;20025;-77
2021/11/29 03:57:00;;;;;;;35.63;16.05;;;5.30;90.30;;;;;;5014842;28;20410;-77
2021/11/29 03:59:26;;;;;;;33.72;14.88;;;5.30;90.20;;;;;;5031654;28;20033;-77
2021/11/29 04:01:51;;;;;;;35.53;14.70;;;5.30;90.20;;;;;;5008154;28;20445;-77
2021/11/29 04:04:17;;;;;;;30.55;14.52;;;5.30;90.20;;;;;;5008595;28;20041;-75
2021/11/29 04:06:43;;;;;;;35.08;16.08;;;5.40;90.30;;;;;;5009617;28;20029;-69
2021/11/29 04:09:09;;;;;;;33.20;15.88;;;5.40;90.30;;;;;;5007428;28;20549;-71
2021/11/29 04:11:35;;;;;;;33.17;15.25;;;5.40;90.20;;;;;;5012062;28;20537;-73
2021/11/29 04:14:01;;;;;;;38.22;16.45;;;5.40;90.10;;;;;;5012097;28;20045;-73
2021/11/29 04:16:27;;;;;;;35.13;14.90;;;5.50;90.20;;;;;;5007819;28;20037;-72
2021/11/29 04:18:53;;;;;;;32.92;16.52;;;5.40;90.10;;;;;;5007986;28;20042;-72
2021/11/29 04:21:19;;;;;;;31.08;15.32;;;5.40;90.20;;;;;;5011837;28;20125;-70
2021/11/29 04:23:47;;;;;;;35.08;16.55;;;5.40;90.20;;;;;;5011320;28;20033;-69
2021/11/29 04:26:16;;;;;;;35.58;16.55;;;5.40;90.30;;;;;;5007192;28;20030;-69
2021/11/29 04:28:42;;;;;;;37.00;15.30;;;5.40;90.20;;;;;;5011958;28;20132;-69
2021/11/29 04:31:08;;;;;;;32.25;15.40;;;5.30;90.20;;;;;;5006066;28;20123;-70
2021/11/29 04:33:36;;;;;;;31.85;14.60;;;5.30;90.40;;;;;;5028646;28;20068;-70
2021/11/29 04:36:03;;;;;;;25.17;12.88;;;5.30;90.50;;;;;;5012653;28;20034;-68
2021/11/29 04:38:30;;;;;;;33.15;14.75;;;5.20;90.60;;;;;;5009102;28;20030;-68
2021/11/29 04:40:55;;;;;;;38.30;17.27;;;5.20;90.70;;;;;;5005613;28;20099;-68
2021/11/29 04:43:21;;;;;;;34.17;16.25;;;5.30;90.60;;;;;;5010610;28;20540;-68
2021/11/29 04:45:48;;;;;;;32.75;16.30;;;5.30;90.50;;;;;;5014139;28;20519;-68
2021/11/29 04:48:14;;;;;;;38.00;16.70;;;5.40;90.40;;;;;;5004900;28;20052;-68
2021/11/29 04:50:40;;;;;;;30.98;15.02;;;5.40;90.40;;;;;;5012953;28;20037;-68
2021/11/29 04:53:06;;;;;;;33.50;15.60;;;5.50;90.40;;;;;;5014249;28;20030;-69
2021/11/29 04:55:32;;;;;;;31.95;15.88;;;5.50;90.50;;;;;;5008699;28;20057;-68
2021/11/29 04:57:58;;;;;;;38.92;17.13;;;5.40;90.40;;;;;;5012858;28;20396;-68
2021/11/29 05:00:24;;;;;;;36.75;16.20;;;5.50;90.40;;;;;;5017135;28;20037;-68
2021/11/29 05:02:50;;;;;;;34.88;17.42;;;5.50;90.30;;;;;;5008626;28;20037;-68
2021/11/29 05:05:16;;;;;;;34.33;16.33;;;5.50;90.40;;;;;;5012799;28;20029;-68
2021/11/29 05:07:42;;;;;;;34.70;16.75;;;5.50;90.30;;;;;;5019584;28;20114;-68
2021/11/29 05:10:10;;;;;;;35.45;16.90;;;5.50;90.40;;;;;;5014295;28;20037;-68
2021/11/29 05:12:36;;;;;;;36.15;16.33;;;5.50;90.60;;;;;;5015258;28;20076;-68
2021/11/29 05:15:03;;;;;;;31.05;14.20;;;5.50;90.40;;;;;;5013478;28;20034;-68
2021/11/29 05:17:29;;;;;;;34.30;16.75;;;5.40;90.40;;;;;;5009412;28;20034;-68
2021/11/29 05:19:55;;;;;;;34.78;15.80;;;5.40;90.40;;;;;;5013641;28;20079;-68
2021/11/29 05:22:21;;;;;;;37.05;16.92;;;5.40;90.40;;;;;;5016155;28;20058;-68
2021/11/29 05:24:48;;;;;;;38.65;17.23;;;5.40;90.50;;;;;;5009391;28;20029;-67
2021/11/29 05:27:14;;;;;;;35.00;15.98;;;5.40;90.40;;;;;;5008514;28;20029;-67
2021/11/29 05:29:40;;;;;;;32.08;15.57;;;5.40;90.40;;;;;;5015718;28;20033;-69
2021/11/29 05:32:06;;;;;;;32.50;15.02;;;5.40;90.40;;;;;;5015203;28;20401;-68
2021/11/29 05:34:33;;;;;;;32.78;15.85;;;5.40;90.50;;;;;;5010882;28;20041;-68
2021/11/29 05:36:59;;;;;;;33.80;16.52;;;5.30;90.40;;;;;;5013773;28;20076;-68
2021/11/29 05:39:24;;;;;;;31.55;16.85;;;5.30;90.50;;;;;;5011792;28;20057;-68
2021/11/29 05:41:51;;;;;;;30.00;14.48;;;5.30;90.60;;;;;;5007340;28;20512;-68
2021/11/29 05:44:17;;;;;;;32.58;15.30;;;5.30;90.60;;;;;;5016128;28;20037;-68
2021/11/29 05:46:44;;;;;;;28.98;14.88;;;5.30;90.60;;;;;;5018388;28;20556;-68
2021/11/29 05:49:10;;;;;;;34.22;16.77;;;5.30;90.60;;;;;;5007053;28;20022;-68
2021/11/29 05:51:35;;;;;;;35.45;16.15;;;5.30;90.70;;;;;;5016704;28;20068;-67
2021/11/29 05:54:01;;;;;;;32.78;16.17;;;5.20;90.70;;;;;;5015597;28;20640;-68
2021/11/29 05:56:27;;;;;;;32.50;15.93;;;5.20;90.90;;;;;;5022773;28;20036;-67
2021/11/29 05:58:53;;;;;;;33.53;15.98;;;5.20;90.80;;;;;;5014659;28;20493;-68
2021/11/29 06:01:22;;;;;;;31.77;15.15;;;5.20;90.60;;;;;;5017635;28;20128;-68
2021/11/29 06:03:49;;;;;;;31.52;14.55;;;5.20;90.70;;;;;;5017838;28;20045;-67
2021/11/29 06:06:15;;;;;;;28.73;14.55;;;5.20;90.60;;;;;;5021451;28;20029;-68
2021/11/29 06:08:41;;;;;;;31.67;15.52;;;5.20;90.70;;;;;;5020826;28;20503;-67
2021/11/29 06:11:06;;;;;;;28.67;14.20;;;5.20;90.60;;;;;;5016775;28;20029;-68
2021/11/29 06:13:32;;;;;;;33.05;15.88;;;5.20;90.60;;;;;;5016344;28;20144;-69
2021/11/29 06:15:59;;;;;;;33.35;15.98;;;5.20;90.70;;;;;;5021013;28;20037;-67
2021/11/29 06:18:25;;;;;;;31.83;15.23;;;5.20;90.70;;;;;;5020515;28;20029;-67
2021/11/29 06:20:50;;;;;;;38.08;17.25;;;5.20;90.70;;;;;;5021660;28;20041;-67
2021/11/29 06:23:16;;;;;;;36.53;16.98;;;5.20;90.80;;;;;;5019356;28;20052;-68
2021/11/29 06:25:42;;;;;;;32.88;15.90;;;5.20;90.80;;;;;;5018913;28;20489;-67
2021/11/29 06:28:08;;;;;;;35.28;15.52;;;5.20;90.70;;;;;;5026460;28;20034;-68
2021/11/29 06:30:34;;;;;;;30.23;15.10;;;5.20;90.70;;;;;;5017997;28;20482;-68
2021/11/29 06:33:00;;;;;;;36.25;16.88;;;5.20;90.80;;;;;;5022128;28;20042;-68
2021/11/29 06:35:26;;;;;;;35.33;16.83;;;5.20;90.60;;;;;;5012230;28;20092;-68
2021/11/29 06:38:01;;;;;;;34.50;15.73;;;5.20;90.60;;;;;;5018637;28;20128;-68
2021/11/29 06:40:28;;;;;;;32.20;16.00;;;5.10;90.60;;;;;;5018177;28;20637;-68
2021/11/29 06:42:55;;;;;;;36.25;16.67;;;5.10;90.70;;;;;;5027355;28;20044;-68
2021/11/29 06:45:21;;;;;;;39.80;17.13;;;5.10;90.60;;;;;;5019812;28;20108;-68
2021/11/29 06:47:48;;;;;;;40.15;18.20;;;5.10;90.70;;;;;;5017933;28;20037;-68
2021/11/29 06:50:14;;;;;;;36.28;16.83;;;5.10;90.70;;;;;;5026261;28;20121;-68
2021/11/29 06:52:40;;;;;;;38.60;17.00;;;5.10;90.70;;;;;;5018925;28;20053;-68
2021/11/29 06:55:11;;;;;;;37.75;17.27;;;5.10;90.80;;;;;;5020227;28;20040;-68
2021/11/29 06:57:37;;;;;;;32.90;16.20;;;5.10;90.70;;;;;;5013482;28;20034;-68
2021/11/29 07:00:05;;;;;;;31.63;15.13;;;5.10;90.90;;;;;;5017347;28;20034;-68
2021/11/29 07:02:31;;;;;;;37.92;16.40;;;5.10;91.00;;;;;;5015019;28;20117;-68
2021/11/29 07:04:58;;;;;;;33.25;15.25;;;5.10;90.80;;;;;;5016634;28;20492;-68
2021/11/29 07:07:24;;;;;;;37.42;16.38;;;5.10;90.90;;;;;;5011943;28;20683;-68
2021/11/29 07:09:50;;;;;;;36.30;16.50;;;5.10;91.00;;;;;;5018600;28;20030;-68
2021/11/29 07:12:16;;;;;;;37.70;17.35;;;5.20;90.90;;;;;;5020660;28;20076;-68
2021/11/29 07:14:42;;;;;;;38.08;17.35;;;5.20;90.90;;;;;;5014219;28;20037;-68
2021/11/29 07:17:08;;;;;;;37.88;17.55;;;5.20;90.90;;;;;;5019424;28;20056;-68
2021/11/29 07:19:37;;;;;;;39.60;18.55;;;5.30;90.90;;;;;;5019860;28;20033;-68
2021/11/29 07:22:05;;;;;;;36.30;17.02;;;5.30;90.80;;;;;;5012514;28;20124;-68
2021/11/29 07:24:31;;;;;;;39.13;16.92;;;5.30;90.70;;;;;;5019029;28;20030;-68
2021/11/29 07:26:57;;;;;;;39.25;17.80;;;5.40;90.70;;;;;;5019030;28;20030;-68
2021/11/29 07:29:23;;;;;;;43.28;18.15;;;5.40;90.70;;;;;;5023458;28;20073;-68
2021/11/29 07:31:49;;;;;;;42.22;18.33;;;5.40;90.70;;;;;;5015750;28;20053;-68
2021/11/29 07:34:15;;;;;;;39.50;16.92;;;5.40;90.60;;;;;;5018447;28;20112;-67
2021/11/29 07:36:41;;;;;;;33.85;15.60;;;5.40;90.60;;;;;;5016791;28;20030;-67
2021/11/29 07:39:08;;;;;;;39.83;17.65;;;5.40;90.60;;;;;;5020173;28;20067;-67
2021/11/29 07:41:34;;;;;;;38.30;16.67;;;5.50;90.90;;;;;;5018945;28;20037;-67
2021/11/29 07:43:59;;;;;;;37.60;16.77;;;5.50;90.50;;;;;;5013011;28;20044;-68
2021/11/29 07:46:25;;;;;;;40.20;17.40;;;5.50;90.20;;;;;;5016177;28;20057;-68
2021/11/29 07:48:51;;;;;;;40.30;17.98;;;5.50;90.10;;;;;;5012919;28;20029;-68
2021/11/29 07:51:17;;;;;;;38.33;16.88;;;5.50;90.20;;;;;;5021926;28;20108;-68
2021/11/29 07:53:43;;;;;;;36.72;16.38;;;5.50;90.40;;;;;;5016232;28;20044;-68
2021/11/29 07:56:09;;;;;;;36.25;16.52;;;5.60;90.20;;;;;;5017035;28;20068;-68
2021/11/29 07:58:34;;;;;;;41.25;18.50;;;5.60;90.10;;;;;;5016301;28;20033;-68
2021/11/29 08:01:01;;;;;;;34.45;16.08;;;5.60;90.00;;;;;;5015285;28;20032;-68
2021/11/29 08:03:27;;;;;;;34.10;15.88;;;5.60;89.70;;;;;;5019010;28;20128;-68
2021/11/29 08:05:53;;;;;;;32.42;14.82;;;5.60;89.90;;;;;;5018954;28;20037;-68
2021/11/29 08:08:18;;;;;;;36.75;16.50;;;5.60;90.00;;;;;;5022386;28;20129;-68
2021/11/29 08:10:44;;;;;;;34.25;16.27;;;5.60;89.60;;;;;;5017338;28;20026;-68
2021/11/29 08:13:13;;;;;;;37.15;17.25;;;5.60;89.60;;;;;;5017201;28;20025;-68
2021/11/29 08:15:40;;;;;;;39.88;16.45;;;5.60;89.50;;;;;;5014066;28;20068;-70
2021/11/29 08:18:07;;;;;;;30.50;14.25;;;5.60;89.30;;;;;;5015325;28;20064;-68
2021/11/29 08:20:34;;;;;;;32.45;14.93;;;5.60;89.50;;;;;;5017260;28;20033;-69
2021/11/29 08:23:00;;;;;;;33.45;14.55;;;5.60;88.70;;;;;;5016306;28;20037;-69
2021/11/29 08:25:26;;;;;;;32.00;14.93;;;5.70;88.80;;;;;;5019662;28;20033;-70
2021/11/29 08:27:52;;;;;;;29.70;13.23;;;5.60;88.60;;;;;;5019293;28;20044;-70
2021/11/29 08:30:22;;;;;;;28.20;13.45;;;5.70;88.80;;;;;;5015670;28;20128;-69
2021/11/29 08:32:49;;;;;;;28.67;13.13;;;5.70;89.10;;;;;;5014366;28;20059;-71
2021/11/29 08:35:17;;;;;;;27.77;13.90;;;5.70;88.50;;;;;;5011587;28;20026;-70
2021/11/29 08:37:46;;;;;;;28.17;13.82;;;5.70;88.30;;;;;;5013696;28;20167;-73
2021/11/29 08:40:18;;;;;;;26.23;13.18;;;5.70;88.50;;;;;;5018532;28;20029;-69
2021/11/29 08:42:43;;;;;;;31.50;15.23;;;5.80;88.50;;;;;;5017980;28;20121;-68
2021/11/29 08:45:10;;;;;;;33.70;14.23;;;5.80;88.40;;;;;;5009782;28;20029;-69
2021/11/29 08:47:36;;;;;;;31.63;13.77;;;5.80;88.40;;;;;;5017092;28;20112;-69
2021/11/29 08:50:03;;;;;;;28.40;12.93;;;5.80;88.40;;;;;;5018446;28;20794;-68
2021/11/29 08:52:33;;;;;;;33.60;16.02;;;5.80;88.70;;;;;;5013895;28;20029;-68
2021/11/29 08:55:03;;;;;;;26.45;12.77;;;5.80;88.80;;;;;;5014970;28;20042;-68
2021/11/29 08:57:29;;;;;;;26.17;13.15;;;5.80;88.70;;;;;;5015168;28;20033;-68
2021/11/29 08:59:55;;;;;;;32.70;15.90;;;5.90;88.70;;;;;;5017846;28;20080;-68
2021/11/29 09:02:21;;;;;;;28.13;13.68;;;5.90;88.50;;;;;;5020393;28;20533;-68
2021/11/29 09:04:47;;;;;;;28.27;13.70;;;5.80;88.30;;;;;;5014808;28;20040;-67
2021/11/29 09:07:13;;;;;;;25.85;12.93;;;5.90;88.40;;;;;;5018943;28;20021;-68
2021/11/29 09:09:38;;;;;;;30.63;14.52;;;5.90;88.60;;;;;;5013045;28;20434;-69
2021/11/29 09:12:05;;;;;;;31.63;13.30;;;5.90;88.70;;;;;;5016424;28;20026;-68
2021/11/29 09:14:31;;;;;;;28.02;13.30;;;5.80;88.60;;;;;;5016379;28;20033;-64
2021/11/29 09:16:57;;;;;;;27.20;13.13;;;5.90;88.50;;;;;;5018309;28;20080;-70
2021/11/29 09:19:24;;;;;;;28.55;14.30;;;5.90;88.70;;;;;;5029819;28;20041;-68
2021/11/29 09:21:50;;;;;;;27.58;14.18;;;5.90;89.00;;;;;;5014942;28;20056;-68
2021/11/29 09:24:17;;;;;;;30.10;13.75;;;5.90;89.20;;;;;;5013959;28;20039;-68
2021/11/29 09:26:42;;;;;;;35.50;14.68;;;6.00;89.20;;;;;;5016328;28;20040;-68
2021/11/29 09:29:08;;;;;;;32.30;14.63;;;6.00;89.00;;;;;;5014333;28;20486;-68
2021/11/29 09:31:34;;;;;;;27.90;12.93;;;6.20;89.00;;;;;;5018352;28;20040;-67
2021/11/29 09:34:00;;;;;;;27.55;14.07;;;6.20;89.00;;;;;;5011973;28;20034;-67
2021/11/29 09:36:26;;;;;;;31.77;13.77;;;6.30;88.20;;;;;;5020395;28;20029;-65
2021/11/29 09:38:52;;;;;;;26.52;13.18;;;6.40;88.30;;;;;;5018720;28;20041;-67
2021/11/29 09:41:21;;;;;;;27.25;12.80;;;6.40;87.90;;;;;;5016562;28;20040;-68
2021/11/29 09:43:49;;;;;;;31.52;14.77;;;6.40;87.80;;;;;;5017881;28;20030;-68
2021/11/29 09:46:15;;;;;;;28.55;13.43;;;6.50;87.90;;;;;;5018583;28;20045;-68
2021/11/29 09:48:41;;;;;;;32.20;15.10;;;6.40;87.40;;;;;;5017748;28;20030;-68
2021/11/29 09:51:07;;;;;;;30.63;14.25;;;6.40;87.30;;;;;;5020844;28;20037;-69
2021/11/29 09:53:33;;;;;;;29.40;13.25;;;6.40;87.30;;;;;;5014160;28;20025;-66
2021/11/29 09:56:01;;;;;;;31.67;13.85;;;6.30;87.70;;;;;;5022749;28;20056;-71
2021/11/29 09:58:28;;;;;;;28.20;13.25;;;6.30;87.70;;;;;;5015963;28;20083;-71
2021/11/29 10:00:57;;;;;;;29.27;13.88;;;6.30;87.00;;;;;;5015517;28;20034;-68
2021/11/29 10:03:24;;;;;;;28.80;13.68;;;6.20;86.50;;;;;;5013909;28;20029;-69
2021/11/29 10:05:51;;;;;;;30.20;14.15;;;6.20;87.30;;;;;;5006356;28;20543;-69
2021/11/29 10:08:18;;;;;;;26.48;13.00;;;6.30;87.90;;;;;;5017019;28;20021;-68
2021/11/29 10:10:53;;;;;;;32.47;14.98;;;6.30;87.90;;;;;;5015763;28;20034;-70
2021/11/29 10:13:21;;;;;;;28.38;13.48;;;6.30;87.20;;;;;;5031098;28;20026;-68
2021/11/29 10:15:48;;;;;;;29.35;13.65;;;6.40;87.10;;;;;;5011483;28;20591;-67
2021/11/29 10:18:28;;;;;;;27.42;13.30;;;6.40;87.50;;;;;;5012529;28;20388;-67
2021/11/29 10:21:07;;;;;;;28.45;13.18;;;6.50;87.60;;;;;;5015063;28;20408;-69
2021/11/29 10:23:40;;;;;;;28.35;13.65;;;6.40;86.90;;;;;;5015656;28;20167;-71
2021/11/29 10:26:09;;;;;;;24.23;11.75;;;6.40;87.30;;;;;;5016418;28;20556;-72
2021/11/29 10:28:41;;;;;;;31.35;13.75;;;6.30;86.30;;;;;;5016633;28;20036;-71
2021/11/29 10:31:17;;;;;;;24.95;12.43;;;6.30;87.10;;;;;;5011190;28;20029;-71
2021/11/29 10:34:07;;;;;;;24.08;12.00;;;6.30;87.40;;;;;;5008899;28;20080;-73
2021/11/29 10:36:49;;;;;;;24.17;11.75;;;6.30;87.60;;;;;;5020510;28;20102;-73
2021/11/29 10:39:19;;;;;;;31.17;13.30;;;6.30;87.80;;;;;;5016239;28;20477;-71
2021/11/29 10:42:00;;;;;;;27.38;13.07;;;6.30;88.00;;;;;;5015771;28;20040;-73
2021/11/29 10:44:39;;;;;;;29.98;15.98;;;6.30;87.60;;;;;;5016371;28;20405;-71
2021/11/29 10:47:11;;;;;;;27.40;13.40;;;6.30;87.90;;;;;;5017890;28;20060;-73
2021/11/29 10:49:40;;;;;;;24.17;11.68;;;6.30;87.60;;;;;;5010946;28;20064;-71
2021/11/29 10:52:08;;;;;;;24.17;11.77;;;6.30;87.60;;;;;;5017522;28;20465;-73
2021/11/29 10:54:37;;;;;;;25.45;12.80;;;6.20;87.20;;;;;;5008664;28;20478;-72
2021/11/29 10:57:04;;;;;;;27.52;13.40;;;6.20;87.20;;;;;;5033126;28;20041;-72
2021/11/29 10:59:35;;;;;;;28.17;12.43;;;6.10;87.60;;;;;;5015845;28;20756;-70
2021/11/29 11:02:13;;;;;;;25.42;12.27;;;6.10;87.90;;;;;;5018173;28;20037;-71
2021/11/29 11:04:47;;;;;;;23.67;11.48;;;6.10;88.50;;;;;;5015743;28;20045;-70
2021/11/29 11:07:24;;;;;;;25.83;11.85;;;6.10;88.50;;;;;;5021041;28;20155;-69
2021/11/29 11:09:55;;;;;;;37.33;18.95;;;6.10;88.60;;;;;;5014460;28;20041;-69
2021/11/29 11:12:24;;;;;;;28.15;14.30;;;6.10;88.70;;;;;;5019718;28;20067;-69
2021/11/29 11:14:55;;;;;;;27.13;12.85;;;6.20;88.70;;;;;;5016182;28;20041;-69
2021/11/29 11:17:27;;;;;;;27.65;12.88;;;6.10;88.10;;;;;;5015993;28;20021;-68
2021/11/29 11:19:58;;;;;;;26.70;12.32;;;6.00;88.00;;;;;;5012181;28;20117;-69
2021/11/29 11:22:36;;;;;;;28.48;12.98;;;6.00;88.60;;;;;;5016813;28;20041;-71
2021/11/29 11:25:09;;;;;;;27.25;12.57;;;5.90;88.40;;;;;;5034743;28;20029;-71
2021/11/29 11:27:52;;;;;;;37.40;17.73;;;5.90;88.90;;;;;;5013313;28;20215;-75
2021/11/29 11:30:19;;;;;;;28.77;14.60;;;5.90;89.10;;;;;;5017892;28;20055;-76
2021/11/29 11:32:55;;;;;;;29.75;13.68;;;6.00;89.20;;;;;;5018093;28;20120;-76
2021/11/29 11:35:29;;;;;;;32.67;15.00;;;6.10;89.20;;;;;;5015038;28;20022;-75
2021/11/29 11:38:10;;;;;;;25.20;12.32;;;6.10;88.90;;;;;;5015816;28;20029;-75
2021/11/29 11:40:39;;;;;;;28.10;12.82;;;6.20;88.40;;;;;;5010660;28;20060;-76
2021/11/29 11:43:08;;;;;;;24.17;12.02;;;6.20;88.00;;;;;;5008235;28;20038;-75
2021/11/29 11:45:37;;;;;;;23.10;11.38;;;6.30;87.80;;;;;;5015148;28;20382;-75
2021/11/29 11:48:05;;;;;;;23.90;11.10;;;6.30;87.60;;;;;;5016791;28;20029;-75
2021/11/29 11:50:34;;;;;;;25.25;11.45;;;6.40;87.50;;;;;;5012736;28;20048;-77
2021/11/29 11:53:05;;;;;;;21.95;9.93;;;6.30;87.00;;;;;;5019429;28;20033;-77
2021/11/29 11:55:35;;;;;;;21.13;9.93;;;6.30;86.40;;;;;;5014479;28;20064;-77
2021/11/29 11:58:05;;;;;;;23.23;10.32;;;6.30;86.60;;;;;;5015176;28;20037;-78
2021/11/29 12:00:42;;;;;;;24.02;10.88;;;6.30;86.10;;;;;;5016806;28;20817;-77
2021/11/29 12:03:33;;;;;;;21.02;9.80;;;6.30;86.20;;;;;;5019907;28;20029;-77
2021/11/29 12:06:05;;;;;;;20.23;9.20;;;6.40;86.40;;;;;;5018949;28;20029;-77
2021/11/29 12:08:43;;;;;;;20.95;9.75;;;6.40;86.20;;;;;;5012999;28;20033;-76
2021/11/29 12:11:27;;;;;;;21.02;10.52;;;6.60;86.30;;;;;;5015223;28;20156;-75
2021/11/29 12:14:07;;;;;;;17.58;8.48;;;6.70;85.20;;;;;;5006543;28;20044;-76
2021/11/29 12:16:40;;;;;;;17.02;8.10;;;6.70;84.90;;;;;;5014853;28;20030;-76
2021/11/29 12:19:14;;;;;;;13.52;6.70;;;6.80;84.80;;;;;;5020575;28;20033;-76
2021/11/29 12:21:42;;;;;;;16.58;7.78;;;6.80;84.40;;;;;;5024896;28;20037;-76
2021/11/29 12:24:11;;;;;;;16.90;8.00;;;6.90;83.80;;;;;;5012788;28;20026;-76
2021/11/29 12:27:04;;;;;;;16.00;8.38;;;6.90;84.10;;;;;;5008841;28;20065;-76
2021/11/29 12:29:30;;;;;;;14.65;6.20;;;6.90;84.50;;;;;;5005819;28;20132;-76
2021/11/29 12:32:05;;;;;;;15.13;7.35;;;6.90;83.80;;;;;;5015335;28;20037;-76
2021/11/29 12:34:47;;;;;;;13.65;7.38;;;6.90;83.50;;;;;;5012213;28;20057;-76
2021/11/29 12:37:26;;;;;;;12.52;5.82;;;6.90;82.60;;;;;;5016755;28;20068;-75
2021/11/29 12:40:07;;;;;;;11.23;5.53;;;7.00;82.70;;;;;;5015009;28;20034;-76
2021/11/29 12:42:32;;;;;;;10.10;5.22;;;7.00;80.80;;;;;;5017361;28;20072;-76